MMHO/HMO METAR and TAF weather

Enter ICAO airport designator
Station Type Date Time Source
MMHO METAR 2019/07/17 18:42 UTC NOAA

MMHO 171842Z 08005KT 10SM FEW040 BKN090 BKN200 31/20 A2998 RMK 8/438 HZY


Station Type Date Time Source
MMHO Decoded METAR 2019/07/17 18:42 UTC NOAA

Hermosillo, Son., Mexico (MMHO) 29-04N 110-57W
Jul 17, 2019 - 02:42 PM EDT / 2019.07.17 1842 UTC
Wind: from the E (080 degrees) at 6 MPH (5 KT):0
Visibility: 10 mile(s):0
Sky conditions: mostly cloudy
Temperature: 87 F (31 C)
Dew Point: 68 F (20 C)
Relative Humidity: 52%
Pressure (altimeter): 29.98 in. Hg (1015 hPa)
ob: MMHO 171842Z 08005KT 10SM FEW040 BKN090 BKN200 31/20 A2998 RMK 8/438 HZY
cycle: 18

Station Type Date Time Source
MMHO TAF 2019/07/17 18:33 UTC NOAA

TAF MMHO 171731Z 1718/1818 09010KT P6SM SCT040 BKN080
BECMG 1720/1721 23015KT BKN040 BKN080
TEMPO 1721/1801 6SM -RA
FM180200 23006KT P6SM SCT040 BKN080
BECMG 1805/1806 00000KT
FM181200 00000KT P6SM SCT030 SCT080 BKN220

Example: see airport list